sensor_id;sensor_type;location;lat;lon;timestamp;P1;durP1;ratioP1;P2;durP2;ratioP2
3149;SDS011;32503;47.748;8.960;2024-03-08T00:02:14;30.07;;;15.57;;
3149;SDS011;32503;47.748;8.960;2024-03-08T00:04:42;29.00;;;16.50;;
3149;SDS011;32503;47.748;8.960;2024-03-08T00:07:09;28.90;;;15.97;;
3149;SDS011;32503;47.748;8.960;2024-03-08T00:09:38;29.80;;;16.47;;
3149;SDS011;32503;47.748;8.960;2024-03-08T00:12:05;30.47;;;17.30;;
3149;SDS011;32503;47.748;8.960;2024-03-08T00:14:35;26.07;;;14.90;;
3149;SDS011;32503;47.748;8.960;2024-03-08T00:17:03;27.20;;;16.37;;
3149;SDS011;32503;47.748;8.960;2024-03-08T00:19:30;30.80;;;16.60;;
3149;SDS011;32503;47.748;8.960;2024-03-08T00:21:57;30.37;;;15.97;;
3149;SDS011;32503;47.748;8.960;2024-03-08T00:24:25;27.27;;;15.53;;
3149;SDS011;32503;47.748;8.960;2024-03-08T00:26:54;26.00;;;14.50;;
3149;SDS011;32503;47.748;8.960;2024-03-08T00:29:21;28.93;;;15.20;;
3149;SDS011;32503;47.748;8.960;2024-03-08T00:31:49;25.40;;;15.67;;
3149;SDS011;32503;47.748;8.960;2024-03-08T00:34:16;23.83;;;13.83;;
3149;SDS011;32503;47.748;8.960;2024-03-08T00:36:43;25.63;;;14.90;;
3149;SDS011;32503;47.748;8.960;2024-03-08T00:39:10;30.53;;;15.17;;
3149;SDS011;32503;47.748;8.960;2024-03-08T00:41:38;28.63;;;14.60;;
3149;SDS011;32503;47.748;8.960;2024-03-08T00:44:05;32.83;;;16.70;;
3149;SDS011;32503;47.748;8.960;2024-03-08T00:46:32;25.33;;;15.50;;
3149;SDS011;32503;47.748;8.960;2024-03-08T00:49:01;25.40;;;16.60;;
3149;SDS011;32503;47.748;8.960;2024-03-08T00:51:28;25.90;;;14.60;;
3149;SDS011;32503;47.748;8.960;2024-03-08T00:53:56;25.67;;;14.70;;
3149;SDS011;32503;47.748;8.960;2024-03-08T00:56:23;30.80;;;14.00;;
3149;SDS011;32503;47.748;8.960;2024-03-08T00:58:50;24.67;;;13.90;;
3149;SDS011;32503;47.748;8.960;2024-03-08T01:01:18;23.97;;;13.23;;
3149;SDS011;32503;47.748;8.960;2024-03-08T01:03:45;24.27;;;13.67;;
3149;SDS011;32503;47.748;8.960;2024-03-08T01:06:15;24.20;;;14.33;;
3149;SDS011;32503;47.748;8.960;2024-03-08T01:08:42;20.60;;;12.37;;
3149;SDS011;32503;47.748;8.960;2024-03-08T01:11:09;25.47;;;13.07;;
3149;SDS011;32503;47.748;8.960;2024-03-08T01:13:36;22.53;;;13.27;;
3149;SDS011;32503;47.748;8.960;2024-03-08T01:16:03;25.30;;;13.80;;
3149;SDS011;32503;47.748;8.960;2024-03-08T01:18:31;29.77;;;14.00;;
3149;SDS011;32503;47.748;8.960;2024-03-08T01:20:59;31.23;;;14.63;;
3149;SDS011;32503;47.748;8.960;2024-03-08T01:23:27;25.67;;;14.57;;
3149;SDS011;32503;47.748;8.960;2024-03-08T01:25:54;19.40;;;12.83;;
3149;SDS011;32503;47.748;8.960;2024-03-08T01:28:23;23.70;;;13.27;;
3149;SDS011;32503;47.748;8.960;2024-03-08T01:30:50;21.37;;;14.43;;
3149;SDS011;32503;47.748;8.960;2024-03-08T01:33:20;28.60;;;14.53;;
3149;SDS011;32503;47.748;8.960;2024-03-08T01:35:48;23.00;;;13.40;;
3149;SDS011;32503;47.748;8.960;2024-03-08T01:38:15;25.73;;;12.83;;
3149;SDS011;32503;47.748;8.960;2024-03-08T01:40:44;20.57;;;13.33;;
3149;SDS011;32503;47.748;8.960;2024-03-08T01:43:17;21.63;;;13.53;;
3149;SDS011;32503;47.748;8.960;2024-03-08T01:45:45;23.20;;;13.00;;
3149;SDS011;32503;47.748;8.960;2024-03-08T01:48:13;23.50;;;12.83;;
3149;SDS011;32503;47.748;8.960;2024-03-08T01:50:42;20.97;;;12.60;;
3149;SDS011;32503;47.748;8.960;2024-03-08T01:53:10;22.63;;;12.77;;
3149;SDS011;32503;47.748;8.960;2024-03-08T01:55:38;25.33;;;13.33;;
3149;SDS011;32503;47.748;8.960;2024-03-08T01:58:07;20.00;;;11.40;;
3149;SDS011;32503;47.748;8.960;2024-03-08T02:00:36;20.63;;;12.57;;
3149;SDS011;32503;47.748;8.960;2024-03-08T02:03:06;25.00;;;12.13;;
3149;SDS011;32503;47.748;8.960;2024-03-08T02:05:33;18.23;;;12.63;;
3149;SDS011;32503;47.748;8.960;2024-03-08T02:08:01;24.10;;;13.03;;
3149;SDS011;32503;47.748;8.960;2024-03-08T02:10:28;25.50;;;12.70;;
3149;SDS011;32503;47.748;8.960;2024-03-08T02:12:55;24.60;;;13.40;;
3149;SDS011;32503;47.748;8.960;2024-03-08T02:15:24;19.40;;;12.70;;
3149;SDS011;32503;47.748;8.960;2024-03-08T02:17:52;24.87;;;13.07;;
3149;SDS011;32503;47.748;8.960;2024-03-08T02:20:19;23.80;;;13.93;;
3149;SDS011;32503;47.748;8.960;2024-03-08T02:22:47;21.97;;;12.60;;
3149;SDS011;32503;47.748;8.960;2024-03-08T02:25:15;22.70;;;12.17;;
3149;SDS011;32503;47.748;8.960;2024-03-08T02:27:44;24.90;;;12.77;;
3149;SDS011;32503;47.748;8.960;2024-03-08T02:30:11;28.47;;;14.57;;
3149;SDS011;32503;47.748;8.960;2024-03-08T02:32:39;25.03;;;13.03;;
3149;SDS011;32503;47.748;8.960;2024-03-08T02:35:06;23.33;;;12.77;;
3149;SDS011;32503;47.748;8.960;2024-03-08T02:37:33;28.13;;;16.97;;
3149;SDS011;32503;47.748;8.960;2024-03-08T02:40:01;27.87;;;16.23;;
3149;SDS011;32503;47.748;8.960;2024-03-08T02:42:30;28.27;;;15.47;;
3149;SDS011;32503;47.748;8.960;2024-03-08T02:44:58;24.77;;;13.80;;
3149;SDS011;32503;47.748;8.960;2024-03-08T02:47:25;41.67;;;21.00;;
3149;SDS011;32503;47.748;8.960;2024-03-08T02:49:52;32.50;;;16.97;;
3149;SDS011;32503;47.748;8.960;2024-03-08T02:52:19;26.87;;;14.87;;
3149;SDS011;32503;47.748;8.960;2024-03-08T02:54:47;25.00;;;13.70;;
3149;SDS011;32503;47.748;8.960;2024-03-08T02:57:16;25.23;;;13.77;;
3149;SDS011;32503;47.748;8.960;2024-03-08T02:59:43;24.00;;;14.80;;
3149;SDS011;32503;47.748;8.960;2024-03-08T03:02:10;21.00;;;12.17;;
3149;SDS011;32503;47.748;8.960;2024-03-08T03:04:39;24.90;;;13.37;;
3149;SDS011;32503;47.748;8.960;2024-03-08T03:07:06;28.57;;;15.20;;
3149;SDS011;32503;47.748;8.960;2024-03-08T03:09:33;24.83;;;14.93;;
3149;SDS011;32503;47.748;8.960;2024-03-08T03:12:00;23.23;;;13.13;;
3149;SDS011;32503;47.748;8.960;2024-03-08T03:14:28;22.10;;;14.10;;
3149;SDS011;32503;47.748;8.960;2024-03-08T03:16:55;21.77;;;13.27;;
3149;SDS011;32503;47.748;8.960;2024-03-08T03:19:22;27.20;;;13.50;;
3149;SDS011;32503;47.748;8.960;2024-03-08T03:21:50;27.70;;;13.87;;
3149;SDS011;32503;47.748;8.960;2024-03-08T03:24:17;23.83;;;13.80;;
3149;SDS011;32503;47.748;8.960;2024-03-08T03:26:46;26.47;;;13.53;;
3149;SDS011;32503;47.748;8.960;2024-03-08T03:29:14;25.83;;;14.17;;
3149;SDS011;32503;47.748;8.960;2024-03-08T03:31:43;27.23;;;15.50;;
3149;SDS011;32503;47.748;8.960;2024-03-08T03:34:11;24.67;;;13.57;;
3149;SDS011;32503;47.748;8.960;2024-03-08T03:36:38;25.20;;;13.93;;
3149;SDS011;32503;47.748;8.960;2024-03-08T03:39:08;23.43;;;12.97;;
3149;SDS011;32503;47.748;8.960;2024-03-08T03:41:41;24.17;;;12.97;;
3149;SDS011;32503;47.748;8.960;2024-03-08T03:44:11;20.40;;;13.47;;
3149;SDS011;32503;47.748;8.960;2024-03-08T03:46:41;24.53;;;13.23;;
3149;SDS011;32503;47.748;8.960;2024-03-08T03:49:11;22.97;;;11.40;;
3149;SDS011;32503;47.748;8.960;2024-03-08T03:51:38;22.27;;;14.37;;
3149;SDS011;32503;47.748;8.960;2024-03-08T03:54:05;21.10;;;12.80;;
3149;SDS011;32503;47.748;8.960;2024-03-08T03:56:32;22.60;;;14.10;;
3149;SDS011;32503;47.748;8.960;2024-03-08T03:58:59;24.87;;;14.27;;
3149;SDS011;32503;47.748;8.960;2024-03-08T04:01:26;22.03;;;13.13;;
3149;SDS011;32503;47.748;8.960;2024-03-08T04:03:54;27.10;;;13.00;;
3149;SDS011;32503;47.748;8.960;2024-03-08T04:06:23;26.90;;;13.97;;
3149;SDS011;32503;47.748;8.960;2024-03-08T04:08:50;19.70;;;12.33;;
3149;SDS011;32503;47.748;8.960;2024-03-08T04:11:17;22.97;;;13.10;;
3149;SDS011;32503;47.748;8.960;2024-03-08T04:13:44;19.07;;;13.20;;
3149;SDS011;32503;47.748;8.960;2024-03-08T04:16:11;24.70;;;13.80;;
3149;SDS011;32503;47.748;8.960;2024-03-08T04:18:38;23.50;;;12.93;;
3149;SDS011;32503;47.748;8.960;2024-03-08T04:21:04;19.87;;;12.77;;
3149;SDS011;32503;47.748;8.960;2024-03-08T04:23:34;25.13;;;13.27;;
3149;SDS011;32503;47.748;8.960;2024-03-08T04:26:01;25.93;;;14.03;;
3149;SDS011;32503;47.748;8.960;2024-03-08T04:28:30;29.13;;;15.90;;
3149;SDS011;32503;47.748;8.960;2024-03-08T04:30:57;29.83;;;14.57;;
3149;SDS011;32503;47.748;8.960;2024-03-08T04:33:25;22.50;;;12.00;;
3149;SDS011;32503;47.748;8.960;2024-03-08T04:35:53;22.70;;;13.47;;
3149;SDS011;32503;47.748;8.960;2024-03-08T04:38:20;27.17;;;13.27;;
3149;SDS011;32503;47.748;8.960;2024-03-08T04:40:48;29.93;;;14.70;;
3149;SDS011;32503;47.748;8.960;2024-03-08T04:43:16;24.70;;;13.17;;
3149;SDS011;32503;47.748;8.960;2024-03-08T04:45:45;29.90;;;14.70;;
3149;SDS011;32503;47.748;8.960;2024-03-08T04:48:13;34.43;;;15.37;;
3149;SDS011;32503;47.748;8.960;2024-03-08T04:50:40;23.20;;;14.37;;
3149;SDS011;32503;47.748;8.960;2024-03-08T04:53:07;25.83;;;13.50;;
3149;SDS011;32503;47.748;8.960;2024-03-08T04:55:34;27.20;;;14.37;;
3149;SDS011;32503;47.748;8.960;2024-03-08T04:58:04;26.27;;;13.90;;
3149;SDS011;32503;47.748;8.960;2024-03-08T05:00:32;25.63;;;14.57;;
3149;SDS011;32503;47.748;8.960;2024-03-08T05:02:59;31.17;;;16.20;;
3149;SDS011;32503;47.748;8.960;2024-03-08T05:05:26;26.30;;;14.97;;
3149;SDS011;32503;47.748;8.960;2024-03-08T05:07:54;27.03;;;14.43;;
3149;SDS011;32503;47.748;8.960;2024-03-08T05:10:21;30.30;;;14.20;;
3149;SDS011;32503;47.748;8.960;2024-03-08T05:12:48;30.27;;;14.47;;
3149;SDS011;32503;47.748;8.960;2024-03-08T05:15:16;25.00;;;14.50;;
3149;SDS011;32503;47.748;8.960;2024-03-08T05:17:45;27.13;;;15.30;;
3149;SDS011;32503;47.748;8.960;2024-03-08T05:20:12;26.00;;;14.97;;
3149;SDS011;32503;47.748;8.960;2024-03-08T05:22:39;27.77;;;14.47;;
3149;SDS011;32503;47.748;8.960;2024-03-08T05:25:07;22.27;;;12.70;;
3149;SDS011;32503;47.748;8.960;2024-03-08T05:27:35;29.17;;;14.80;;
3149;SDS011;32503;47.748;8.960;2024-03-08T05:30:02;25.63;;;13.67;;
3149;SDS011;32503;47.748;8.960;2024-03-08T05:32:32;24.70;;;14.10;;
3149;SDS011;32503;47.748;8.960;2024-03-08T05:34:59;30.30;;;14.70;;
3149;SDS011;32503;47.748;8.960;2024-03-08T05:37:26;26.13;;;13.80;;
3149;SDS011;32503;47.748;8.960;2024-03-08T05:39:53;32.83;;;16.60;;
3149;SDS011;32503;47.748;8.960;2024-03-08T05:42:20;24.60;;;14.30;;
3149;SDS011;32503;47.748;8.960;2024-03-08T05:44:47;26.77;;;15.17;;
3149;SDS011;32503;47.748;8.960;2024-03-08T05:47:14;26.03;;;14.33;;
3149;SDS011;32503;47.748;8.960;2024-03-08T05:49:44;25.40;;;13.43;;
3149;SDS011;32503;47.748;8.960;2024-03-08T05:52:11;28.33;;;14.57;;
3149;SDS011;32503;47.748;8.960;2024-03-08T05:54:39;26.60;;;14.97;;
3149;SDS011;32503;47.748;8.960;2024-03-08T05:57:07;23.77;;;13.87;;
3149;SDS011;32503;47.748;8.960;2024-03-08T05:59:34;27.67;;;14.00;;
3149;SDS011;32503;47.748;8.960;2024-03-08T06:02:01;27.57;;;14.00;;
3149;SDS011;32503;47.748;8.960;2024-03-08T06:04:28;28.87;;;14.83;;
3149;SDS011;32503;47.748;8.960;2024-03-08T06:06:57;27.20;;;15.60;;
3149;SDS011;32503;47.748;8.960;2024-03-08T06:09:24;27.50;;;14.60;;
3149;SDS011;32503;47.748;8.960;2024-03-08T06:11:51;27.40;;;14.70;;
3149;SDS011;32503;47.748;8.960;2024-03-08T06:14:18;26.03;;;13.73;;
3149;SDS011;32503;47.748;8.960;2024-03-08T06:16:46;27.17;;;15.60;;
3149;SDS011;32503;47.748;8.960;2024-03-08T06:19:15;26.60;;;15.20;;
3149;SDS011;32503;47.748;8.960;2024-03-08T06:21:42;31.23;;;16.27;;
3149;SDS011;32503;47.748;8.960;2024-03-08T06:24:10;29.47;;;14.80;;
3149;SDS011;32503;47.748;8.960;2024-03-08T06:26:37;27.43;;;15.60;;
3149;SDS011;32503;47.748;8.960;2024-03-08T06:29:03;27.47;;;15.70;;
3149;SDS011;32503;47.748;8.960;2024-03-08T06:31:32;23.70;;;14.47;;
3149;SDS011;32503;47.748;8.960;2024-03-08T06:33:59;28.83;;;15.83;;
3149;SDS011;32503;47.748;8.960;2024-03-08T06:36:26;22.80;;;14.27;;
3149;SDS011;32503;47.748;8.960;2024-03-08T06:38:53;29.30;;;15.97;;
3149;SDS011;32503;47.748;8.960;2024-03-08T06:41:23;31.23;;;15.30;;
3149;SDS011;32503;47.748;8.960;2024-03-08T06:43:50;29.87;;;14.27;;
3149;SDS011;32503;47.748;8.960;2024-03-08T06:46:22;30.47;;;15.27;;
3149;SDS011;32503;47.748;8.960;2024-03-08T06:48:49;29.33;;;15.43;;
3149;SDS011;32503;47.748;8.960;2024-03-08T06:51:16;27.80;;;14.50;;
3149;SDS011;32503;47.748;8.960;2024-03-08T06:53:44;26.33;;;13.17;;
3149;SDS011;32503;47.748;8.960;2024-03-08T06:56:11;23.73;;;13.50;;
3149;SDS011;32503;47.748;8.960;2024-03-08T06:58:39;27.30;;;14.07;;
3149;SDS011;32503;47.748;8.960;2024-03-08T07:01:07;29.17;;;14.70;;
3149;SDS011;32503;47.748;8.960;2024-03-08T07:03:38;29.40;;;15.00;;
3149;SDS011;32503;47.748;8.960;2024-03-08T07:06:09;32.30;;;16.27;;
3149;SDS011;32503;47.748;8.960;2024-03-08T07:08:36;34.00;;;16.07;;
3149;SDS011;32503;47.748;8.960;2024-03-08T07:11:04;27.60;;;15.77;;
3149;SDS011;32503;47.748;8.960;2024-03-08T07:13:31;29.03;;;14.23;;
3149;SDS011;32503;47.748;8.960;2024-03-08T07:15:59;25.17;;;14.00;;
3149;SDS011;32503;47.748;8.960;2024-03-08T07:18:27;32.67;;;16.83;;
3149;SDS011;32503;47.748;8.960;2024-03-08T07:20:54;24.60;;;14.40;;
3149;SDS011;32503;47.748;8.960;2024-03-08T07:23:22;30.93;;;14.83;;
3149;SDS011;32503;47.748;8.960;2024-03-08T07:26:14;24.77;;;13.40;;
3149;SDS011;32503;47.748;8.960;2024-03-08T07:28:43;22.20;;;13.40;;
3149;SDS011;32503;47.748;8.960;2024-03-08T07:31:12;26.70;;;14.37;;
3149;SDS011;32503;47.748;8.960;2024-03-08T07:33:46;24.60;;;14.40;;
3149;SDS011;32503;47.748;8.960;2024-03-08T07:36:15;23.13;;;13.07;;
3149;SDS011;32503;47.748;8.960;2024-03-08T07:38:42;25.87;;;14.33;;
3149;SDS011;32503;47.748;8.960;2024-03-08T07:41:11;24.80;;;14.40;;
3149;SDS011;32503;47.748;8.960;2024-03-08T07:43:39;26.60;;;14.77;;
3149;SDS011;32503;47.748;8.960;2024-03-08T07:46:06;24.73;;;14.30;;
3149;SDS011;32503;47.748;8.960;2024-03-08T07:48:36;26.53;;;14.30;;
3149;SDS011;32503;47.748;8.960;2024-03-08T07:51:05;23.53;;;15.57;;
3149;SDS011;32503;47.748;8.960;2024-03-08T07:53:34;27.10;;;14.27;;
3149;SDS011;32503;47.748;8.960;2024-03-08T07:56:01;26.20;;;13.10;;
3149;SDS011;32503;47.748;8.960;2024-03-08T07:58:30;34.83;;;17.30;;
3149;SDS011;32503;47.748;8.960;2024-03-08T08:00:57;32.90;;;16.90;;
3149;SDS011;32503;47.748;8.960;2024-03-08T08:03:24;25.70;;;13.83;;
3149;SDS011;32503;47.748;8.960;2024-03-08T08:05:53;28.70;;;14.23;;
3149;SDS011;32503;47.748;8.960;2024-03-08T08:08:20;24.47;;;14.60;;
3149;SDS011;32503;47.748;8.960;2024-03-08T08:10:47;41.60;;;18.73;;
3149;SDS011;32503;47.748;8.960;2024-03-08T08:13:15;35.30;;;17.43;;
3149;SDS011;32503;47.748;8.960;2024-03-08T08:15:43;39.77;;;20.00;;
3149;SDS011;32503;47.748;8.960;2024-03-08T08:18:11;35.50;;;19.73;;
3149;SDS011;32503;47.748;8.960;2024-03-08T08:20:39;44.40;;;22.23;;
3149;SDS011;32503;47.748;8.960;2024-03-08T08:23:07;28.00;;;14.83;;
3149;SDS011;32503;47.748;8.960;2024-03-08T08:25:37;26.87;;;14.70;;
3149;SDS011;32503;47.748;8.960;2024-03-08T08:28:04;29.37;;;17.90;;
3149;SDS011;32503;47.748;8.960;2024-03-08T08:30:31;32.23;;;18.67;;
3149;SDS011;32503;47.748;8.960;2024-03-08T08:32:59;30.10;;;16.83;;
3149;SDS011;32503;47.748;8.960;2024-03-08T08:35:26;31.00;;;15.23;;
3149;SDS011;32503;47.748;8.960;2024-03-08T08:37:53;27.40;;;15.60;;
3149;SDS011;32503;47.748;8.960;2024-03-08T08:40:22;29.70;;;16.30;;
3149;SDS011;32503;47.748;8.960;2024-03-08T08:42:49;30.03;;;14.23;;
3149;SDS011;32503;47.748;8.960;2024-03-08T08:45:18;22.93;;;13.73;;
3149;SDS011;32503;47.748;8.960;2024-03-08T08:47:45;27.73;;;13.93;;
3149;SDS011;32503;47.748;8.960;2024-03-08T08:50:14;27.50;;;13.37;;
3149;SDS011;32503;47.748;8.960;2024-03-08T08:52:48;31.27;;;15.53;;
3149;SDS011;32503;47.748;8.960;2024-03-08T08:55:15;21.80;;;13.50;;
3149;SDS011;32503;47.748;8.960;2024-03-08T08:57:47;28.23;;;15.03;;
3149;SDS011;32503;47.748;8.960;2024-03-08T09:00:16;32.27;;;15.13;;
3149;SDS011;32503;47.748;8.960;2024-03-08T09:02:45;26.97;;;13.07;;
3149;SDS011;32503;47.748;8.960;2024-03-08T09:05:12;34.37;;;15.17;;
3149;SDS011;32503;47.748;8.960;2024-03-08T09:07:41;29.33;;;15.10;;
3149;SDS011;32503;47.748;8.960;2024-03-08T09:10:10;28.80;;;14.30;;
3149;SDS011;32503;47.748;8.960;2024-03-08T09:12:39;23.77;;;12.60;;
3149;SDS011;32503;47.748;8.960;2024-03-08T09:15:08;25.60;;;13.07;;
3149;SDS011;32503;47.748;8.960;2024-03-08T09:17:36;30.17;;;15.07;;
3149;SDS011;32503;47.748;8.960;2024-03-08T09:20:05;43.73;;;18.70;;
3149;SDS011;32503;47.748;8.960;2024-03-08T09:22:33;38.30;;;17.77;;
3149;SDS011;32503;47.748;8.960;2024-03-08T09:25:01;26.70;;;13.80;;
3149;SDS011;32503;47.748;8.960;2024-03-08T09:27:30;28.00;;;13.63;;
3149;SDS011;32503;47.748;8.960;2024-03-08T09:29:57;22.80;;;13.47;;
3149;SDS011;32503;47.748;8.960;2024-03-08T09:32:25;23.70;;;12.87;;
3149;SDS011;32503;47.748;8.960;2024-03-08T09:34:52;23.70;;;12.73;;
3149;SDS011;32503;47.748;8.960;2024-03-08T09:37:21;24.53;;;13.00;;
3149;SDS011;32503;47.748;8.960;2024-03-08T09:39:48;27.17;;;15.20;;
3149;SDS011;32503;47.748;8.960;2024-03-08T09:42:16;33.43;;;18.30;;
3149;SDS011;32503;47.748;8.960;2024-03-08T09:44:44;33.50;;;16.57;;
3149;SDS011;32503;47.748;8.960;2024-03-08T09:47:12;24.70;;;12.40;;
3149;SDS011;32503;47.748;8.960;2024-03-08T09:49:41;32.60;;;17.90;;
3149;SDS011;32503;47.748;8.960;2024-03-08T09:52:09;23.77;;;13.20;;
3149;SDS011;32503;47.748;8.960;2024-03-08T09:54:37;21.37;;;12.33;;
3149;SDS011;32503;47.748;8.960;2024-03-08T09:57:05;25.37;;;12.10;;
3149;SDS011;32503;47.748;8.960;2024-03-08T09:59:34;21.33;;;11.53;;
3149;SDS011;32503;47.748;8.960;2024-03-08T10:02:14;26.10;;;13.20;;
3149;SDS011;32503;47.748;8.960;2024-03-08T10:04:43;19.70;;;11.50;;
3149;SDS011;32503;47.748;8.960;2024-03-08T10:07:12;23.50;;;11.40;;
3149;SDS011;32503;47.748;8.960;2024-03-08T10:09:39;21.37;;;12.00;;
3149;SDS011;32503;47.748;8.960;2024-03-08T10:12:12;19.47;;;11.07;;
3149;SDS011;32503;47.748;8.960;2024-03-08T10:14:40;22.73;;;11.30;;
3149;SDS011;32503;47.748;8.960;2024-03-08T10:17:08;19.93;;;10.63;;
3149;SDS011;32503;47.748;8.960;2024-03-08T10:19:35;20.33;;;10.93;;
3149;SDS011;32503;47.748;8.960;2024-03-08T10:22:05;20.23;;;10.77;;
3149;SDS011;32503;47.748;8.960;2024-03-08T10:24:33;18.53;;;10.87;;
3149;SDS011;32503;47.748;8.960;2024-03-08T10:27:00;18.37;;;9.70;;
3149;SDS011;32503;47.748;8.960;2024-03-08T10:29:30;22.10;;;13.03;;
3149;SDS011;32503;47.748;8.960;2024-03-08T10:31:58;22.13;;;12.40;;
3149;SDS011;32503;47.748;8.960;2024-03-08T10:34:25;17.00;;;10.17;;
3149;SDS011;32503;47.748;8.960;2024-03-08T10:36:52;20.40;;;10.23;;
3149;SDS011;32503;47.748;8.960;2024-03-08T10:39:24;18.00;;;11.43;;
3149;SDS011;32503;47.748;8.960;2024-03-08T10:41:56;19.77;;;11.97;;
3149;SDS011;32503;47.748;8.960;2024-03-08T10:47:18;19.80;;;10.40;;
3149;SDS011;32503;47.748;8.960;2024-03-08T10:49:55;20.23;;;11.40;;
3149;SDS011;32503;47.748;8.960;2024-03-08T10:52:46;21.47;;;11.50;;
3149;SDS011;32503;47.748;8.960;2024-03-08T10:55:17;15.73;;;10.70;;
3149;SDS011;32503;47.748;8.960;2024-03-08T10:57:45;17.63;;;10.20;;
3149;SDS011;32503;47.748;8.960;2024-03-08T11:00:13;15.10;;;10.03;;
3149;SDS011;32503;47.748;8.960;2024-03-08T11:02:43;18.00;;;10.53;;
3149;SDS011;32503;47.748;8.960;2024-03-08T11:05:10;18.07;;;11.37;;
3149;SDS011;32503;47.748;8.960;2024-03-08T11:07:59;18.77;;;9.60;;
3149;SDS011;32503;47.748;8.960;2024-03-08T11:10:27;18.27;;;11.20;;
3149;SDS011;32503;47.748;8.960;2024-03-08T11:12:54;17.80;;;10.67;;
3149;SDS011;32503;47.748;8.960;2024-03-08T11:15:23;13.93;;;9.77;;
3149;SDS011;32503;47.748;8.960;2024-03-08T11:17:51;16.43;;;9.70;;
3149;SDS011;32503;47.748;8.960;2024-03-08T11:20:23;17.30;;;9.27;;
3149;SDS011;32503;47.748;8.960;2024-03-08T11:22:52;16.43;;;10.47;;
3149;SDS011;32503;47.748;8.960;2024-03-08T11:25:35;17.83;;;10.50;;
3149;SDS011;32503;47.748;8.960;2024-03-08T11:28:06;13.07;;;8.20;;
3149;SDS011;32503;47.748;8.960;2024-03-08T11:30:43;16.73;;;9.80;;
3149;SDS011;32503;47.748;8.960;2024-03-08T11:33:13;14.37;;;8.37;;
3149;SDS011;32503;47.748;8.960;2024-03-08T11:35:41;15.47;;;9.60;;
3149;SDS011;32503;47.748;8.960;2024-03-08T11:38:11;19.87;;;9.80;;
3149;SDS011;32503;47.748;8.960;2024-03-08T11:40:40;15.40;;;8.37;;
3149;SDS011;32503;47.748;8.960;2024-03-08T11:43:08;17.27;;;10.03;;
3149;SDS011;32503;47.748;8.960;2024-03-08T11:45:35;15.27;;;9.20;;
3149;SDS011;32503;47.748;8.960;2024-03-08T11:48:02;14.63;;;9.77;;
3149;SDS011;32503;47.748;8.960;2024-03-08T11:50:31;15.67;;;9.23;;
3149;SDS011;32503;47.748;8.960;2024-03-08T11:53:02;14.00;;;10.07;;
3149;SDS011;32503;47.748;8.960;2024-03-08T11:55:31;18.00;;;10.47;;
3149;SDS011;32503;47.748;8.960;2024-03-08T11:58:02;17.50;;;10.10;;
3149;SDS011;32503;47.748;8.960;2024-03-08T12:00:33;14.90;;;9.90;;
3149;SDS011;32503;47.748;8.960;2024-03-08T12:03:04;12.63;;;8.03;;
3149;SDS011;32503;47.748;8.960;2024-03-08T12:05:34;15.80;;;9.23;;
3149;SDS011;32503;47.748;8.960;2024-03-08T12:08:03;13.37;;;8.23;;
3149;SDS011;32503;47.748;8.960;2024-03-08T12:10:32;13.30;;;9.90;;
3149;SDS011;32503;47.748;8.960;2024-03-08T12:13:00;20.43;;;11.77;;
3149;SDS011;32503;47.748;8.960;2024-03-08T12:15:29;16.53;;;10.30;;
3149;SDS011;32503;47.748;8.960;2024-03-08T12:17:58;13.90;;;10.50;;
3149;SDS011;32503;47.748;8.960;2024-03-08T12:20:27;17.60;;;11.03;;
3149;SDS011;32503;47.748;8.960;2024-03-08T12:22:56;16.60;;;10.10;;
3149;SDS011;32503;47.748;8.960;2024-03-08T12:25:26;17.27;;;10.07;;
3149;SDS011;32503;47.748;8.960;2024-03-08T12:27:56;15.40;;;9.57;;
3149;SDS011;32503;47.748;8.960;2024-03-08T12:30:43;17.07;;;10.23;;
3149;SDS011;32503;47.748;8.960;2024-03-08T12:33:14;16.67;;;10.90;;
3149;SDS011;32503;47.748;8.960;2024-03-08T12:35:49;13.00;;;9.23;;
3149;SDS011;32503;47.748;8.960;2024-03-08T12:38:23;19.10;;;10.60;;
3149;SDS011;32503;47.748;8.960;2024-03-08T12:40:57;17.77;;;11.20;;
3149;SDS011;32503;47.748;8.960;2024-03-08T12:43:28;16.87;;;9.87;;
3149;SDS011;32503;47.748;8.960;2024-03-08T12:45:56;16.80;;;10.77;;
3149;SDS011;32503;47.748;8.960;2024-03-08T12:48:24;19.03;;;10.30;;
3149;SDS011;32503;47.748;8.960;2024-03-08T12:50:51;17.67;;;12.50;;
3149;SDS011;32503;47.748;8.960;2024-03-08T12:53:19;18.70;;;11.07;;
3149;SDS011;32503;47.748;8.960;2024-03-08T12:55:48;21.10;;;10.07;;
3149;SDS011;32503;47.748;8.960;2024-03-08T12:58:17;18.87;;;11.07;;
3149;SDS011;32503;47.748;8.960;2024-03-08T13:00:46;20.20;;;10.80;;
3149;SDS011;32503;47.748;8.960;2024-03-08T13:03:14;18.27;;;10.27;;
3149;SDS011;32503;47.748;8.960;2024-03-08T13:05:41;20.70;;;10.80;;
3149;SDS011;32503;47.748;8.960;2024-03-08T13:08:09;16.27;;;10.33;;
3149;SDS011;32503;47.748;8.960;2024-03-08T13:10:38;17.50;;;10.63;;
3149;SDS011;32503;47.748;8.960;2024-03-08T13:13:08;20.10;;;11.63;;
3149;SDS011;32503;47.748;8.960;2024-03-08T13:15:35;21.13;;;12.60;;
3149;SDS011;32503;47.748;8.960;2024-03-08T13:18:04;22.97;;;12.53;;
3149;SDS011;32503;47.748;8.960;2024-03-08T13:20:34;19.57;;;11.53;;
3149;SDS011;32503;47.748;8.960;2024-03-08T13:23:02;19.17;;;11.50;;
3149;SDS011;32503;47.748;8.960;2024-03-08T13:25:30;18.97;;;10.77;;
3149;SDS011;32503;47.748;8.960;2024-03-08T13:27:57;15.00;;;10.70;;
3149;SDS011;32503;47.748;8.960;2024-03-08T13:30:25;20.37;;;10.63;;
3149;SDS011;32503;47.748;8.960;2024-03-08T13:32:53;17.73;;;11.20;;
3149;SDS011;32503;47.748;8.960;2024-03-08T13:35:21;14.30;;;9.80;;
3149;SDS011;32503;47.748;8.960;2024-03-08T13:37:52;14.00;;;10.20;;
3149;SDS011;32503;47.748;8.960;2024-03-08T13:40:19;20.40;;;10.93;;
3149;SDS011;32503;47.748;8.960;2024-03-08T13:42:46;17.47;;;10.70;;
3149;SDS011;32503;47.748;8.960;2024-03-08T13:45:15;18.47;;;11.10;;
3149;SDS011;32503;47.748;8.960;2024-03-08T13:47:47;17.20;;;11.37;;
3149;SDS011;32503;47.748;8.960;2024-03-08T13:50:16;17.63;;;10.13;;
3149;SDS011;32503;47.748;8.960;2024-03-08T13:52:47;16.07;;;11.50;;
3149;SDS011;32503;47.748;8.960;2024-03-08T13:55:16;19.57;;;11.37;;
3149;SDS011;32503;47.748;8.960;2024-03-08T13:57:43;16.10;;;11.50;;
3149;SDS011;32503;47.748;8.960;2024-03-08T14:00:11;17.90;;;11.10;;
3149;SDS011;32503;47.748;8.960;2024-03-08T14:02:40;19.53;;;10.80;;
3149;SDS011;32503;47.748;8.960;2024-03-08T14:05:08;17.47;;;10.20;;
3149;SDS011;32503;47.748;8.960;2024-03-08T14:07:36;16.50;;;10.67;;
3149;SDS011;32503;47.748;8.960;2024-03-08T14:10:06;21.53;;;12.43;;
3149;SDS011;32503;47.748;8.960;2024-03-08T14:14:47;17.27;;;10.70;;
3149;SDS011;32503;47.748;8.960;2024-03-08T14:17:14;21.60;;;11.97;;
3149;SDS011;32503;47.748;8.960;2024-03-08T14:19:42;17.00;;;10.87;;
3149;SDS011;32503;47.748;8.960;2024-03-08T14:22:09;19.57;;;10.97;;
3149;SDS011;32503;47.748;8.960;2024-03-08T14:24:39;16.50;;;11.50;;
3149;SDS011;32503;47.748;8.960;2024-03-08T14:27:07;19.00;;;11.07;;
3149;SDS011;32503;47.748;8.960;2024-03-08T14:29:34;16.57;;;11.00;;
3149;SDS011;32503;47.748;8.960;2024-03-08T14:32:03;17.10;;;10.00;;
3149;SDS011;32503;47.748;8.960;2024-03-08T14:34:31;15.73;;;10.57;;
3149;SDS011;32503;47.748;8.960;2024-03-08T14:36:59;19.33;;;10.80;;
3149;SDS011;32503;47.748;8.960;2024-03-08T14:39:29;14.70;;;9.93;;
3149;SDS011;32503;47.748;8.960;2024-03-08T14:41:58;18.70;;;12.20;;
3149;SDS011;32503;47.748;8.960;2024-03-08T14:44:27;13.50;;;9.80;;
3149;SDS011;32503;47.748;8.960;2024-03-08T14:46:55;20.93;;;11.37;;
3149;SDS011;32503;47.748;8.960;2024-03-08T14:49:24;18.37;;;11.80;;